createdAt,value
2022-10-10T00:03:30.640Z,2.72
2022-10-10T00:08:32.891Z,2.33
2022-10-10T00:13:35.303Z,2.58
2022-10-10T00:18:37.879Z,2.13
2022-10-10T00:23:40.007Z,1.92
2022-10-10T00:28:42.191Z,2.10
2022-10-10T00:33:45.131Z,2.20
2022-10-10T00:38:47.758Z,2.13
2022-10-10T00:44:10.262Z,2.30
2022-10-10T00:49:17.775Z,2.20
2022-10-10T00:54:22.119Z,2.20
2022-10-10T00:59:25.911Z,2.63
2022-10-10T01:04:43.109Z,2.60
2022-10-10T01:09:50.326Z,2.22
2022-10-10T01:15:05.521Z,2.40
2022-10-10T01:20:32.392Z,2.87
2022-10-10T01:26:06.297Z,2.70
2022-10-10T01:31:13.148Z,2.97
2022-10-10T01:36:28.450Z,2.45
2022-10-10T01:41:41.297Z,2.40
2022-10-10T01:46:43.519Z,2.47
2022-10-10T01:52:06.094Z,2.50
2022-10-10T01:57:26.326Z,3.03
2022-10-10T02:03:00.774Z,3.80
2022-10-10T02:08:29.182Z,4.15
2022-10-10T02:14:00.282Z,4.53
2022-10-10T02:19:06.162Z,4.90
2022-10-10T02:29:25.104Z,4.97
2022-10-10T02:34:35.234Z,4.78
2022-10-10T02:39:42.466Z,5.40
2022-10-10T02:44:45.799Z,4.57
2022-10-10T02:49:48.322Z,3.38
2022-10-10T02:54:50.624Z,5.40
2022-10-10T02:59:52.787Z,4.88
2022-10-10T03:04:55.153Z,4.28
2022-10-10T03:09:57.374Z,4.60
2022-10-10T03:14:59.501Z,4.50
2022-10-10T03:20:01.645Z,4.85
2022-10-10T03:25:04.362Z,6.18
2022-10-10T03:30:07.195Z,4.13
2022-10-10T03:35:10.167Z,5.35
2022-10-10T03:40:12.297Z,4.80
2022-10-10T03:45:14.510Z,5.80
2022-10-10T03:50:16.984Z,5.32
2022-10-10T03:55:19.083Z,5.68
2022-10-10T04:00:21.425Z,4.70
2022-10-10T04:05:23.657Z,5.20
2022-10-10T04:10:25.941Z,4.55
2022-10-10T04:15:28.259Z,4.63
2022-10-10T04:20:30.415Z,4.82
2022-10-10T04:25:32.642Z,4.75
2022-10-10T04:30:35.221Z,4.00
2022-10-10T04:35:37.525Z,4.15
2022-10-10T04:40:39.729Z,4.60
2022-10-10T04:45:41.851Z,3.55
2022-10-10T04:50:44.044Z,3.90
2022-10-10T04:55:46.269Z,4.20
2022-10-10T05:00:53.527Z,5.50
2022-10-10T05:05:55.870Z,4.00
2022-10-10T05:10:58.242Z,4.15
2022-10-10T05:16:00.928Z,4.32
2022-10-10T05:21:03.942Z,6.57
2022-10-10T05:26:06.252Z,5.15
2022-10-10T05:31:08.533Z,3.58
2022-10-10T05:36:13.290Z,5.18
2022-10-10T05:41:15.463Z,4.20
2022-10-10T05:46:18.469Z,3.50
2022-10-10T05:51:21.174Z,2.60
2022-10-10T05:56:23.813Z,4.50
2022-10-10T06:01:26.020Z,3.72
2022-10-10T06:06:28.330Z,4.35
2022-10-10T06:11:30.698Z,4.32
2022-10-10T06:16:32.970Z,3.35
2022-10-10T06:21:35.072Z,4.13
2022-10-10T06:26:37.305Z,3.47
2022-10-10T06:31:41.296Z,3.40
2022-10-10T06:36:43.418Z,3.08
2022-10-10T06:41:45.563Z,4.00
2022-10-10T06:46:47.759Z,4.75
2022-10-10T06:51:49.958Z,4.63
2022-10-10T06:56:52.269Z,5.22
2022-10-10T07:01:54.468Z,6.60
2022-10-10T07:06:56.665Z,6.13
2022-10-10T07:11:58.939Z,5.82
2022-10-10T07:17:01.131Z,4.97
2022-10-10T07:22:03.295Z,5.90
2022-10-10T07:27:08.748Z,6.05
2022-10-10T07:32:11.297Z,4.50
2022-10-10T07:37:13.576Z,5.85
2022-10-10T07:42:15.667Z,4.50
2022-10-10T07:47:17.745Z,5.05
2022-10-10T07:52:19.820Z,2.92
2022-10-10T07:57:21.996Z,2.47
2022-10-10T08:02:24.133Z,2.20
2022-10-10T08:07:26.334Z,2.58
2022-10-10T08:12:28.957Z,1.95
2022-10-10T08:17:31.071Z,2.60
2022-10-10T08:22:33.308Z,2.00
2022-10-10T08:27:35.432Z,1.60
2022-10-10T08:32:37.611Z,2.00
2022-10-10T08:37:39.813Z,1.75
2022-10-10T08:42:52.497Z,2.10
2022-10-10T08:48:03.976Z,2.30
2022-10-10T08:53:35.770Z,2.10
2022-10-10T08:58:43.974Z,2.42
2022-10-10T09:03:51.910Z,3.08
2022-10-10T09:08:53.990Z,2.35
2022-10-10T09:14:09.300Z,2.42
2022-10-10T09:19:13.566Z,2.37
2022-10-10T09:24:22.624Z,2.35
2022-10-10T09:29:36.395Z,2.35
2022-10-10T09:34:48.871Z,2.38
2022-10-10T09:40:00.764Z,2.35
2022-10-10T09:45:03.864Z,2.53
2022-10-10T09:50:06.275Z,2.65
2022-10-10T09:55:34.939Z,2.80
2022-10-10T10:00:37.295Z,2.38
2022-10-10T10:05:41.555Z,1.90
2022-10-10T10:10:43.689Z,2.03
2022-10-10T10:15:52.295Z,2.05
2022-10-10T10:21:03.372Z,2.30
2022-10-10T10:26:14.822Z,2.42
2022-10-10T10:31:22.760Z,2.10
2022-10-10T10:37:06.086Z,2.50
2022-10-10T10:42:25.766Z,2.75
2022-10-10T10:47:40.040Z,2.00
2022-10-10T10:53:22.757Z,2.40
2022-10-10T11:09:50.534Z,2.70
2022-10-10T11:14:55.854Z,3.00
2022-10-10T11:20:16.568Z,3.20
2022-10-10T11:25:25.856Z,2.35
2022-10-10T11:30:33.795Z,2.35
2022-10-10T11:35:46.142Z,2.40
2022-10-10T11:40:54.266Z,2.53
2022-10-10T11:46:05.633Z,2.17
2022-10-10T11:51:22.922Z,2.33
2022-10-10T11:56:39.780Z,2.67
2022-10-10T12:01:48.437Z,2.67
2022-10-10T12:06:59.686Z,1.98
2022-10-10T12:12:20.114Z,2.00
2022-10-10T12:17:27.641Z,2.15
2022-10-10T12:22:29.970Z,1.70
2022-10-10T12:28:11.111Z,1.40
2022-10-10T12:33:20.597Z,1.83
2022-10-10T12:38:27.967Z,1.80
2022-10-10T12:44:11.500Z,1.90
2022-10-10T12:49:13.550Z,1.55
2022-10-10T12:54:25.599Z,2.05
2022-10-10T12:59:27.852Z,1.55
2022-10-10T13:04:31.079Z,2.28
2022-10-10T13:09:35.814Z,1.90
2022-10-10T13:14:41.324Z,1.80
2022-10-10T13:19:43.494Z,1.23
2022-10-10T13:24:47.349Z,1.90
2022-10-10T13:29:50.052Z,1.75
2022-10-10T13:35:02.105Z,2.40
2022-10-10T13:40:04.705Z,2.00
2022-10-10T13:45:37.660Z,2.42
2022-10-10T13:50:42.533Z,2.00
2022-10-10T13:55:44.722Z,1.85
2022-10-10T14:00:58.389Z,2.50
2022-10-10T14:06:01.029Z,1.70
2022-10-10T14:11:07.638Z,2.20
2022-10-10T14:16:24.284Z,1.77
2022-10-10T14:21:26.422Z,2.30
2022-10-10T14:26:28.538Z,2.00
2022-10-10T14:31:30.764Z,2.40
2022-10-10T14:36:32.919Z,2.28
2022-10-10T14:41:35.077Z,2.13
2022-10-10T14:46:38.529Z,2.53
2022-10-10T14:51:40.665Z,1.90
2022-10-10T14:57:07.496Z,1.80
2022-10-10T15:02:08.193Z,1.97
2022-10-10T15:07:14.027Z,1.90
2022-10-10T15:12:17.071Z,2.38
2022-10-10T15:17:19.209Z,2.40
2022-10-10T15:22:21.364Z,2.45
2022-10-10T15:27:24.765Z,1.77
2022-10-10T15:32:26.883Z,2.22
2022-10-10T15:37:29.035Z,2.58
2022-10-10T15:42:31.420Z,2.88
2022-10-10T15:47:33.572Z,2.10
2022-10-10T15:52:36.552Z,2.00
2022-10-10T15:57:38.687Z,2.60
2022-10-10T16:02:41.154Z,2.40
2022-10-10T16:07:47.918Z,1.95
2022-10-10T16:12:50.748Z,1.67
2022-10-10T16:17:52.955Z,2.58
2022-10-10T16:22:55.691Z,2.05
2022-10-10T16:27:57.903Z,1.75
2022-10-10T16:33:00.322Z,1.75
2022-10-10T16:38:02.568Z,2.25
2022-10-10T16:43:05.113Z,2.10
2022-10-10T16:48:07.244Z,1.75
2022-10-10T16:53:11.063Z,1.75
2022-10-10T16:58:13.164Z,1.75
2022-10-10T17:03:15.501Z,2.08
2022-10-10T17:08:17.619Z,1.90
2022-10-10T17:13:19.803Z,1.60
2022-10-10T17:18:22.072Z,1.80
2022-10-10T17:23:24.285Z,1.50
2022-10-10T17:28:26.542Z,2.10
2022-10-10T17:33:28.679Z,1.88
2022-10-10T17:38:39.714Z,1.80
2022-10-10T17:43:42.865Z,2.40
2022-10-10T17:48:45.024Z,2.22
2022-10-10T17:53:47.088Z,1.80
2022-10-10T17:58:50.695Z,1.95
2022-10-10T18:03:52.943Z,2.10
2022-10-10T18:08:55.999Z,1.70
2022-10-10T18:14:01.471Z,1.98
2022-10-10T18:19:05.660Z,1.92
2022-10-10T18:24:08.143Z,2.05
2022-10-10T18:29:10.636Z,2.67
2022-10-10T18:34:12.802Z,2.30
2022-10-10T18:39:16.674Z,2.75
2022-10-10T18:44:19.345Z,6.75
2022-10-10T18:49:21.613Z,8.75
2022-10-10T18:54:23.718Z,10.25
2022-10-10T18:59:25.811Z,10.45
2022-10-10T19:04:28.145Z,8.05
2022-10-10T19:09:30.222Z,5.70
2022-10-10T19:14:32.293Z,4.15
2022-10-10T19:19:34.448Z,2.70
2022-10-10T19:24:36.628Z,2.10
2022-10-10T19:29:38.751Z,1.70
2022-10-10T19:34:40.884Z,2.85
2022-10-10T19:39:43.029Z,2.15
2022-10-10T19:44:47.473Z,1.67
2022-10-10T19:49:49.601Z,1.52
2022-10-10T19:54:53.448Z,1.95
2022-10-10T19:59:55.545Z,2.30
2022-10-10T20:04:57.633Z,2.95
2022-10-10T20:09:59.680Z,3.10
2022-10-10T20:15:02.029Z,2.50
2022-10-10T20:20:05.369Z,2.85
2022-10-10T20:25:07.883Z,3.75
2022-10-10T20:30:10.416Z,4.60
2022-10-10T20:35:14.147Z,4.25
2022-10-10T20:40:16.778Z,3.95
2022-10-10T20:45:18.815Z,4.03
2022-10-10T20:50:20.889Z,3.60
2022-10-10T20:55:22.954Z,3.30
2022-10-10T21:00:25.267Z,3.67
2022-10-10T21:05:27.437Z,3.65
2022-10-10T21:10:30.215Z,3.10
2022-10-10T21:15:32.396Z,3.40
2022-10-10T21:20:34.637Z,3.85
2022-10-10T21:25:39.873Z,3.50
2022-10-10T21:30:52.658Z,3.63
2022-10-10T21:35:56.256Z,3.78
2022-10-10T21:41:05.335Z,9.50
2022-10-10T21:46:12.575Z,7.45
2022-10-10T21:51:16.044Z,19.08
2022-10-10T21:56:18.553Z,10.35
2022-10-10T22:01:23.844Z,11.43
2022-10-10T22:06:26.375Z,17.23
2022-10-10T22:11:31.054Z,20.63
2022-10-10T22:16:34.444Z,11.57
2022-10-10T22:21:36.949Z,12.40
2022-10-10T22:26:39.238Z,12.82
2022-10-10T22:31:41.419Z,9.35
2022-10-10T22:36:43.755Z,9.73
2022-10-10T22:41:46.229Z,5.20
2022-10-10T22:46:48.949Z,3.58
2022-10-10T22:51:51.515Z,3.10
2022-10-10T22:56:53.783Z,3.45
2022-10-10T23:01:56.016Z,3.15
2022-10-10T23:06:58.145Z,2.95
2022-10-10T23:12:00.303Z,2.63
2022-10-10T23:17:02.432Z,2.65
2022-10-10T23:22:04.619Z,2.80
2022-10-10T23:27:06.837Z,2.10
2022-10-10T23:32:08.969Z,2.00
2022-10-10T23:37:11.112Z,2.20
2022-10-10T23:42:13.343Z,1.88
2022-10-10T23:47:15.596Z,1.52
2022-10-10T23:52:17.739Z,1.98
2022-10-10T23:57:32.696Z,1.90
